Time;durP1;ratioP1;P1;durP2;ratioP2;P2;SDS_P1;SDS_P2;PMS_P1;PMS_P2;Temp;Humidity;BMP_temperature;BMP_pressure;BME280_temperature;BME280_humidity;BME280_pressure;Samples;Min_cycle;Max_cycle;Signal;HPM_P1;HPM_P2
2023/03/18 00:01:02;;;;;;;28.08;15.70;;;10.50;99.90;;;;;;5030390;28;20057;-70
2023/03/18 00:03:30;;;;;;;32.53;15.98;;;10.50;99.90;;;;;;5030835;28;20739;-69
2023/03/18 00:06:03;;;;;;;32.53;16.30;;;10.50;99.90;;;;;;5028541;28;20028;-68
2023/03/18 00:08:28;;;;;;;27.05;15.63;;;10.50;99.90;;;;;;5029873;28;20105;-69
2023/03/18 00:10:55;;;;;;;30.70;15.20;;;10.50;99.90;;;;;;5031256;28;20033;-69
2023/03/18 00:13:21;;;;;;;29.77;15.73;;;10.40;99.90;;;;;;5030723;28;20485;-68
2023/03/18 00:15:50;;;;;;;34.88;17.55;;;10.40;99.90;;;;;;5013065;28;20051;-68
2023/03/18 00:18:15;;;;;;;30.60;15.68;;;10.40;99.90;;;;;;5009435;28;20029;-68
2023/03/18 00:20:42;;;;;;;36.70;16.80;;;10.40;99.90;;;;;;5030569;28;20041;-68
2023/03/18 00:23:08;;;;;;;34.35;17.92;;;10.30;99.90;;;;;;5030624;28;20500;-68
2023/03/18 00:25:34;;;;;;;34.47;18.10;;;10.30;99.90;;;;;;5030711;28;20018;-68
2023/03/18 00:28:01;;;;;;;37.17;17.90;;;10.30;99.90;;;;;;5027266;28;20405;-68
2023/03/18 00:30:27;;;;;;;37.45;18.60;;;10.30;99.90;;;;;;5029241;28;20037;-68
2023/03/18 00:32:55;;;;;;;34.65;19.05;;;10.20;99.90;;;;;;5027124;28;20194;-68
2023/03/18 00:35:20;;;;;;;34.25;20.38;;;10.20;99.90;;;;;;5007567;28;20025;-69
2023/03/18 00:37:47;;;;;;;36.05;19.48;;;10.10;99.90;;;;;;5028753;28;20030;-68
2023/03/18 00:40:16;;;;;;;34.88;18.60;;;10.10;99.90;;;;;;5029323;28;20033;-68
2023/03/18 00:42:46;;;;;;;36.53;19.05;;;10.10;99.90;;;;;;5030053;28;20033;-68
2023/03/18 00:45:14;;;;;;;40.78;20.55;;;10.10;99.90;;;;;;5030282;28;20025;-68
2023/03/18 00:47:41;;;;;;;38.92;19.70;;;10.00;99.90;;;;;;5028217;28;20029;-68
2023/03/18 00:50:09;;;;;;;43.33;19.83;;;10.00;99.90;;;;;;5031466;28;20057;-68
2023/03/18 00:52:36;;;;;;;34.67;19.35;;;10.00;99.90;;;;;;5031584;28;20013;-69
2023/03/18 00:55:02;;;;;;;36.92;21.35;;;10.00;99.90;;;;;;5034430;28;20027;-68
2023/03/18 00:57:29;;;;;;;36.63;20.33;;;10.00;99.90;;;;;;5016433;28;20502;-70
2023/03/18 00:59:55;;;;;;;39.92;21.23;;;10.00;99.90;;;;;;5031966;28;20124;-68
2023/03/18 01:02:22;;;;;;;38.90;21.08;;;10.00;99.90;;;;;;5033217;28;20103;-70
2023/03/18 01:04:52;;;;;;;39.22;20.52;;;10.00;99.90;;;;;;5033097;28;20393;-68
2023/03/18 01:07:18;;;;;;;37.88;19.13;;;10.00;99.90;;;;;;5032157;28;20050;-69
2023/03/18 01:09:44;;;;;;;35.72;20.23;;;10.00;99.90;;;;;;5016136;28;20044;-68
2023/03/18 01:12:11;;;;;;;37.42;20.48;;;10.00;99.90;;;;;;5034019;28;20033;-68
2023/03/18 01:14:38;;;;;;;37.53;19.60;;;10.00;99.90;;;;;;5033744;28;20534;-68
2023/03/18 01:17:05;;;;;;;38.17;20.63;;;10.00;99.90;;;;;;5033821;28;20041;-68
2023/03/18 01:19:31;;;;;;;40.47;20.38;;;10.00;99.90;;;;;;5033099;28;20037;-68
2023/03/18 01:21:57;;;;;;;35.28;19.90;;;9.90;99.90;;;;;;5032901;28;20470;-67
2023/03/18 01:24:23;;;;;;;36.65;20.05;;;9.90;99.90;;;;;;5033590;28;20021;-69
2023/03/18 01:26:49;;;;;;;39.85;21.38;;;9.90;99.90;;;;;;5033218;28;20685;-69
2023/03/18 01:29:16;;;;;;;43.25;23.02;;;9.90;99.90;;;;;;5033993;28;20547;-68
2023/03/18 01:31:42;;;;;;;45.33;24.50;;;9.90;99.90;;;;;;5033838;28;20377;-69
2023/03/18 01:34:07;;;;;;;44.33;23.30;;;9.80;99.90;;;;;;5034881;28;20029;-68
2023/03/18 01:36:33;;;;;;;44.30;23.67;;;9.90;99.90;;;;;;5035223;28;20481;-67
2023/03/18 01:38:59;;;;;;;41.25;22.52;;;9.80;99.90;;;;;;5034582;28;20489;-67
2023/03/18 01:41:25;;;;;;;39.13;21.58;;;9.80;99.90;;;;;;5034447;28;20044;-69
2023/03/18 01:43:53;;;;;;;40.85;22.13;;;9.80;99.90;;;;;;5034450;28;20071;-67
2023/03/18 01:46:38;;;;;;;40.00;21.55;;;9.80;99.90;;;;;;5016240;28;20028;-68
2023/03/18 01:49:15;;;;;;;37.00;21.02;;;9.90;99.90;;;;;;5025818;28;20026;-68
2023/03/18 01:51:48;;;;;;;37.88;20.95;;;9.90;99.90;;;;;;5034721;28;20025;-68
2023/03/18 01:54:15;;;;;;;38.40;20.80;;;9.90;99.90;;;;;;5024138;28;20481;-69
2023/03/18 01:56:44;;;;;;;38.65;20.65;;;10.00;99.90;;;;;;5034701;28;20076;-68
2023/03/18 01:59:11;;;;;;;40.88;21.63;;;9.90;99.90;;;;;;5034438;28;20513;-69
2023/03/18 02:01:50;;;;;;;43.92;21.48;;;9.90;99.90;;;;;;5005045;28;20041;-69
2023/03/18 02:04:17;;;;;;;43.90;22.35;;;10.00;99.90;;;;;;5029763;28;20037;-69
2023/03/18 02:06:43;;;;;;;44.42;23.40;;;10.10;99.90;;;;;;5034382;28;20018;-68
2023/03/18 02:09:11;;;;;;;42.47;22.48;;;10.10;99.90;;;;;;5034453;28;20034;-69
2023/03/18 02:11:41;;;;;;;40.95;22.45;;;10.10;99.90;;;;;;5034267;28;20458;-69
2023/03/18 02:14:09;;;;;;;38.33;21.27;;;10.20;99.90;;;;;;5034297;28;20042;-69
2023/03/18 02:17:02;;;;;;;37.60;22.17;;;10.20;99.90;;;;;;5033883;28;20018;-69
2023/03/18 02:19:55;;;;;;;37.63;21.45;;;10.20;99.90;;;;;;5021983;28;20061;-69
2023/03/18 02:22:33;;;;;;;41.30;21.67;;;10.20;99.90;;;;;;5018986;28;20025;-69
2023/03/18 02:25:29;;;;;;;36.92;19.85;;;10.10;99.90;;;;;;5034512;28;20029;-69
2023/03/18 02:28:02;;;;;;;37.08;18.63;;;10.10;99.90;;;;;;5003850;28;20104;-68
2023/03/18 02:30:32;;;;;;;37.22;21.15;;;10.00;99.90;;;;;;5016181;28;20053;-71
2023/03/18 02:32:59;;;;;;;45.20;23.48;;;10.00;99.90;;;;;;5033482;28;20029;-70
2023/03/18 02:35:26;;;;;;;41.22;25.67;;;10.00;99.90;;;;;;5034069;28;20039;-70
2023/03/18 02:37:52;;;;;;;41.47;24.38;;;10.00;99.90;;;;;;5033731;28;20037;-70
2023/03/18 02:40:24;;;;;;;43.83;26.45;;;10.00;99.90;;;;;;5033406;28;20084;-69
2023/03/18 02:42:50;;;;;;;48.15;27.80;;;10.00;99.90;;;;;;5031962;28;20044;-71
2023/03/18 02:45:44;;;;;;;39.85;23.13;;;10.00;99.90;;;;;;5034063;28;20034;-70
2023/03/18 02:48:14;;;;;;;43.22;22.52;;;10.00;99.90;;;;;;4997484;28;20045;-70
2023/03/18 02:50:39;;;;;;;44.50;25.48;;;10.00;99.90;;;;;;5030725;28;20052;-69
2023/03/18 02:53:05;;;;;;;39.13;23.52;;;10.00;99.90;;;;;;5028940;28;20038;-69
2023/03/18 02:55:31;;;;;;;39.63;21.80;;;10.00;99.90;;;;;;5033310;28;20029;-69
2023/03/18 02:57:56;;;;;;;48.22;24.33;;;10.00;99.90;;;;;;5033780;28;20477;-69
2023/03/18 03:00:22;;;;;;;42.90;25.65;;;10.10;99.90;;;;;;5033457;28;20033;-68
2023/03/18 03:02:47;;;;;;;42.20;24.83;;;10.20;99.90;;;;;;5033325;28;20026;-69
2023/03/18 03:05:14;;;;;;;44.15;24.27;;;10.20;99.90;;;;;;5033862;28;20034;-69
2023/03/18 03:07:40;;;;;;;39.35;24.25;;;10.30;99.90;;;;;;5033494;28;20496;-69
2023/03/18 03:10:06;;;;;;;40.00;23.60;;;10.40;99.90;;;;;;5033492;28;20025;-69
2023/03/18 03:12:32;;;;;;;39.90;23.42;;;10.50;99.90;;;;;;5033027;28;20025;-68
2023/03/18 03:14:58;;;;;;;39.35;22.55;;;10.60;99.90;;;;;;5033339;28;20036;-68
2023/03/18 03:17:23;;;;;;;36.05;21.80;;;10.50;99.90;;;;;;5033151;28;20025;-69
2023/03/18 03:19:49;;;;;;;38.55;23.20;;;10.50;99.90;;;;;;5033040;28;20052;-69
2023/03/18 03:22:16;;;;;;;41.10;23.63;;;10.60;99.90;;;;;;5033316;28;20022;-68
2023/03/18 03:24:42;;;;;;;35.08;22.30;;;10.60;99.90;;;;;;5020990;28;20036;-69
2023/03/18 03:27:08;;;;;;;40.63;23.40;;;10.60;99.90;;;;;;5032791;28;20437;-71
2023/03/18 03:29:34;;;;;;;38.60;23.20;;;10.70;99.90;;;;;;5033150;28;20492;-71
2023/03/18 03:32:00;;;;;;;41.13;23.35;;;10.70;99.90;;;;;;5032783;28;20026;-70
2023/03/18 03:34:26;;;;;;;36.78;22.27;;;10.70;99.90;;;;;;5033019;28;20112;-70
2023/03/18 03:36:52;;;;;;;36.92;22.50;;;10.70;99.90;;;;;;5032840;28;20104;-71
2023/03/18 03:39:18;;;;;;;41.67;23.60;;;10.60;99.90;;;;;;5032971;28;20037;-70
2023/03/18 03:41:44;;;;;;;41.53;25.25;;;10.60;99.90;;;;;;5032946;28;20026;-71
2023/03/18 03:44:10;;;;;;;37.72;22.73;;;10.70;99.90;;;;;;5032974;28;20072;-70
2023/03/18 03:46:36;;;;;;;42.42;23.33;;;10.70;99.90;;;;;;5032574;28;20377;-70
2023/03/18 03:49:03;;;;;;;35.45;22.42;;;10.70;99.90;;;;;;5032631;28;20025;-70
2023/03/18 03:51:29;;;;;;;39.97;22.60;;;10.70;99.90;;;;;;5031515;28;20033;-70
2023/03/18 03:53:54;;;;;;;38.15;22.77;;;10.70;99.90;;;;;;5020314;28;20029;-69
2023/03/18 03:56:21;;;;;;;35.72;20.38;;;10.80;99.90;;;;;;5032506;28;20539;-69
2023/03/18 03:58:46;;;;;;;36.83;22.23;;;10.80;99.90;;;;;;5032401;28;20051;-68
2023/03/18 04:01:12;;;;;;;39.97;23.10;;;10.80;99.90;;;;;;5032517;28;20509;-70
2023/03/18 04:03:37;;;;;;;38.17;21.63;;;10.80;99.90;;;;;;5032311;28;20021;-69
2023/03/18 04:06:03;;;;;;;38.05;22.60;;;10.80;99.90;;;;;;5032395;28;20029;-69
2023/03/18 04:08:29;;;;;;;39.42;22.50;;;10.80;99.90;;;;;;5032386;28;20029;-70
2023/03/18 04:10:55;;;;;;;35.53;22.17;;;10.80;99.90;;;;;;5032582;28;20032;-70
2023/03/18 04:13:22;;;;;;;38.45;22.92;;;10.80;99.90;;;;;;5032496;28;20071;-70
2023/03/18 04:15:47;;;;;;;36.72;21.88;;;10.80;99.90;;;;;;5031307;28;20029;-68
2023/03/18 04:18:13;;;;;;;38.78;22.02;;;10.90;99.90;;;;;;5025316;28;20038;-69
2023/03/18 04:20:39;;;;;;;37.25;23.33;;;10.90;99.90;;;;;;5018431;28;20064;-70
2023/03/18 04:23:06;;;;;;;40.28;23.58;;;10.90;99.90;;;;;;5027026;28;20060;-70
2023/03/18 04:25:32;;;;;;;38.92;24.00;;;10.90;99.90;;;;;;5017136;28;20104;-68
2023/03/18 04:27:57;;;;;;;35.65;21.73;;;10.90;99.90;;;;;;5030472;28;20064;-67
2023/03/18 04:30:25;;;;;;;41.67;24.48;;;10.90;99.90;;;;;;5032083;28;20049;-70
2023/03/18 04:32:51;;;;;;;45.67;24.38;;;10.80;99.90;;;;;;5032202;28;20052;-71
2023/03/18 04:35:17;;;;;;;39.72;23.77;;;10.80;99.90;;;;;;5032278;28;20029;-70
2023/03/18 04:37:43;;;;;;;42.92;25.45;;;10.80;99.90;;;;;;5031374;28;20128;-70
2023/03/18 04:40:10;;;;;;;41.00;24.17;;;10.80;99.90;;;;;;5025304;28;20037;-69
2023/03/18 04:42:36;;;;;;;41.40;24.75;;;10.80;99.90;;;;;;5019141;28;20030;-69
2023/03/18 04:45:04;;;;;;;39.70;22.13;;;10.80;99.90;;;;;;5031691;28;20389;-70
2023/03/18 04:47:31;;;;;;;38.17;22.80;;;10.80;99.90;;;;;;5031851;28;20419;-71
2023/03/18 04:49:57;;;;;;;37.63;23.05;;;10.80;99.90;;;;;;5031905;28;20060;-69
2023/03/18 04:52:23;;;;;;;38.90;21.20;;;10.80;99.90;;;;;;5032087;28;20053;-70
2023/03/18 04:54:49;;;;;;;40.60;22.23;;;10.80;99.90;;;;;;5031849;28;20102;-68
2023/03/18 04:57:15;;;;;;;39.63;22.38;;;10.80;99.90;;;;;;5031690;28;20032;-69
2023/03/18 04:59:42;;;;;;;37.38;24.52;;;10.80;99.90;;;;;;5031487;28;20094;-69
2023/03/18 05:02:07;;;;;;;36.92;23.42;;;10.80;99.90;;;;;;5031884;28;20038;-69
2023/03/18 05:04:33;;;;;;;36.42;22.00;;;10.90;99.90;;;;;;5032063;28;20032;-70
2023/03/18 05:06:59;;;;;;;36.22;21.67;;;10.90;99.90;;;;;;5031934;28;20033;-68
2023/03/18 05:09:26;;;;;;;53.13;31.27;;;10.90;99.90;;;;;;5031754;28;20034;-68
2023/03/18 05:11:51;;;;;;;40.10;25.20;;;10.90;99.90;;;;;;5031441;28;20025;-67
2023/03/18 05:14:17;;;;;;;38.15;22.67;;;11.00;99.90;;;;;;5032066;28;20100;-69
2023/03/18 05:16:43;;;;;;;39.65;23.10;;;11.10;99.90;;;;;;5032128;28;20195;-68
2023/03/18 05:19:09;;;;;;;37.80;22.38;;;11.10;99.90;;;;;;5031774;28;20100;-69
2023/03/18 05:21:35;;;;;;;37.03;22.13;;;11.00;99.90;;;;;;5031919;28;20029;-68
2023/03/18 05:24:01;;;;;;;40.58;22.73;;;11.10;99.90;;;;;;5031712;28;20029;-70
2023/03/18 05:26:27;;;;;;;36.63;22.92;;;11.00;99.90;;;;;;5031602;28;20476;-68
2023/03/18 05:28:52;;;;;;;36.95;21.30;;;11.00;99.90;;;;;;5031777;28;20060;-69
2023/03/18 05:31:18;;;;;;;35.40;21.75;;;11.00;99.90;;;;;;5031791;28;20037;-67
2023/03/18 05:33:45;;;;;;;38.35;23.55;;;11.00;99.90;;;;;;5031649;28;20474;-70
2023/03/18 05:36:10;;;;;;;35.95;23.20;;;10.90;99.90;;;;;;5027036;28;20488;-67
2023/03/18 05:38:36;;;;;;;40.13;23.58;;;10.90;99.90;;;;;;5035088;28;20053;-68
2023/03/18 05:41:02;;;;;;;42.70;25.63;;;11.00;99.90;;;;;;5035065;28;20116;-68
2023/03/18 05:43:28;;;;;;;41.63;25.42;;;11.00;99.90;;;;;;5035425;28;20155;-69
2023/03/18 05:45:54;;;;;;;39.67;24.52;;;11.00;99.90;;;;;;5035320;28;20452;-68
2023/03/18 05:48:20;;;;;;;37.42;21.42;;;11.00;99.90;;;;;;5035674;28;20033;-68
2023/03/18 05:50:46;;;;;;;42.78;24.58;;;11.00;99.90;;;;;;5035333;28;20041;-70
2023/03/18 05:53:12;;;;;;;38.33;21.83;;;11.00;99.90;;;;;;5034935;28;20418;-68
2023/03/18 05:55:39;;;;;;;39.88;22.67;;;10.90;99.90;;;;;;5034415;28;20022;-70
2023/03/18 05:58:06;;;;;;;36.63;22.05;;;10.90;99.90;;;;;;5034951;28;20041;-68
2023/03/18 06:00:32;;;;;;;36.15;21.45;;;11.00;99.90;;;;;;5034946;28;20029;-68
2023/03/18 06:03:00;;;;;;;35.90;20.88;;;11.00;99.90;;;;;;5026128;28;20030;-68
2023/03/18 06:05:25;;;;;;;32.42;20.08;;;11.00;99.90;;;;;;5020131;28;20036;-67
2023/03/18 06:07:52;;;;;;;37.28;21.35;;;11.00;99.90;;;;;;5030548;28;20129;-68
2023/03/18 06:10:18;;;;;;;38.05;21.90;;;11.00;99.90;;;;;;5021729;28;20030;-68
2023/03/18 06:12:44;;;;;;;39.13;24.63;;;11.00;99.90;;;;;;5022547;28;20052;-68
2023/03/18 06:15:12;;;;;;;35.97;23.33;;;10.90;99.90;;;;;;5034323;28;20381;-68
2023/03/18 06:17:37;;;;;;;36.55;23.30;;;10.90;99.90;;;;;;5032969;28;20029;-67
2023/03/18 06:20:05;;;;;;;37.05;22.67;;;10.90;99.90;;;;;;5034620;28;20064;-67
2023/03/18 06:22:31;;;;;;;38.78;23.02;;;10.90;99.90;;;;;;5034271;28;20025;-68
2023/03/18 06:24:57;;;;;;;38.50;23.70;;;10.90;99.90;;;;;;5034163;28;20519;-68
2023/03/18 06:27:23;;;;;;;39.53;24.00;;;10.90;99.90;;;;;;5034031;28;20022;-68
2023/03/18 06:29:49;;;;;;;33.65;22.90;;;11.00;99.90;;;;;;5033854;28;20474;-68
2023/03/18 06:32:15;;;;;;;38.05;23.35;;;11.10;99.90;;;;;;5034476;28;20040;-68
2023/03/18 06:34:41;;;;;;;37.88;23.63;;;11.30;99.90;;;;;;5034114;28;20025;-68
2023/03/18 06:37:07;;;;;;;42.28;24.13;;;11.30;99.90;;;;;;5034139;28;20030;-68
2023/03/18 06:39:33;;;;;;;37.95;23.77;;;11.40;99.90;;;;;;5033502;28;20458;-68
2023/03/18 06:41:59;;;;;;;36.70;23.02;;;11.40;99.90;;;;;;5033961;28;20017;-68
2023/03/18 06:44:25;;;;;;;39.22;25.27;;;11.50;99.90;;;;;;5034372;28;20385;-68
2023/03/18 06:46:51;;;;;;;34.47;23.63;;;11.60;99.90;;;;;;5033930;28;20124;-67
2023/03/18 06:49:16;;;;;;;36.53;23.67;;;11.60;99.90;;;;;;5033679;28;20068;-68
2023/03/18 06:51:42;;;;;;;37.50;23.42;;;11.70;99.90;;;;;;5016249;28;20029;-68
2023/03/18 06:54:09;;;;;;;40.42;25.52;;;11.80;99.90;;;;;;5033817;28;20030;-67
2023/03/18 06:56:40;;;;;;;44.15;24.95;;;11.90;99.90;;;;;;5033640;28;20053;-68
2023/03/18 06:59:07;;;;;;;37.97;23.83;;;12.00;99.90;;;;;;5033663;28;20030;-68
2023/03/18 07:01:33;;;;;;;37.50;23.27;;;12.10;99.90;;;;;;5033489;28;20029;-68
2023/03/18 07:03:59;;;;;;;34.50;23.08;;;12.20;99.90;;;;;;5032213;28;20030;-68
2023/03/18 07:06:25;;;;;;;35.42;21.73;;;12.30;99.90;;;;;;5032429;28;20393;-68
2023/03/18 07:08:51;;;;;;;36.30;20.40;;;12.50;99.90;;;;;;5033570;28;20033;-68
2023/03/18 07:11:17;;;;;;;35.58;20.25;;;12.60;99.90;;;;;;5032517;28;20033;-68
2023/03/18 07:13:43;;;;;;;32.92;20.65;;;12.70;99.90;;;;;;5032754;28;20533;-68
2023/03/18 07:16:09;;;;;;;29.65;19.52;;;12.80;99.90;;;;;;5032451;28;20112;-68
2023/03/18 07:18:36;;;;;;;31.13;19.23;;;12.90;99.90;;;;;;5033105;28;20067;-68
2023/03/18 07:21:02;;;;;;;28.65;16.67;;;13.00;99.90;;;;;;5033133;28;20041;-68
2023/03/18 07:23:28;;;;;;;32.83;19.08;;;13.10;99.90;;;;;;5032503;28;20033;-68
2023/03/18 07:25:53;;;;;;;27.83;17.70;;;13.10;99.90;;;;;;5032463;28;20112;-68
2023/03/18 07:28:19;;;;;;;27.75;17.20;;;13.10;99.90;;;;;;5033250;28;20026;-68
2023/03/18 07:30:45;;;;;;;26.48;16.48;;;13.20;99.90;;;;;;5032832;28;20056;-68
2023/03/18 07:33:11;;;;;;;29.58;18.45;;;13.20;99.90;;;;;;5025694;28;20080;-68
2023/03/18 07:35:39;;;;;;;27.60;17.33;;;13.20;99.90;;;;;;5032733;28;20060;-67
2023/03/18 07:38:09;;;;;;;27.67;17.08;;;13.20;99.90;;;;;;5033150;28;20030;-70
2023/03/18 07:40:36;;;;;;;26.02;15.95;;;13.30;99.90;;;;;;5032379;28;20065;-68
2023/03/18 07:43:02;;;;;;;26.77;15.90;;;13.30;99.90;;;;;;5014882;28;20041;-69
2023/03/18 07:45:28;;;;;;;23.50;14.15;;;13.30;99.90;;;;;;5025026;28;20109;-67
2023/03/18 07:47:54;;;;;;;27.50;16.48;;;13.20;99.90;;;;;;5028568;28;20030;-68
2023/03/18 07:50:19;;;;;;;24.63;14.70;;;13.20;99.90;;;;;;5032478;28;20025;-69
2023/03/18 07:52:45;;;;;;;27.05;15.48;;;13.20;99.90;;;;;;5032663;28;20064;-68
2023/03/18 07:55:11;;;;;;;27.05;16.48;;;13.10;99.90;;;;;;5032683;28;20037;-68
2023/03/18 07:57:37;;;;;;;29.35;14.57;;;13.20;99.90;;;;;;5032427;28;20466;-68
2023/03/18 08:00:05;;;;;;;28.50;16.13;;;13.30;99.90;;;;;;5020695;28;20038;-69
2023/03/18 08:02:31;;;;;;;24.77;14.80;;;13.40;99.90;;;;;;5026558;28;20029;-69
2023/03/18 08:04:56;;;;;;;25.08;14.48;;;13.60;99.90;;;;;;5029582;28;20468;-69
2023/03/18 08:07:23;;;;;;;24.77;14.88;;;13.60;99.90;;;;;;5028870;28;20646;-69
2023/03/18 08:09:49;;;;;;;24.08;13.38;;;14.10;99.90;;;;;;5030455;28;20048;-69
2023/03/18 08:12:15;;;;;;;25.35;14.30;;;14.60;99.90;;;;;;5027891;28;20064;-69
2023/03/18 08:14:41;;;;;;;23.00;13.00;;;15.20;99.90;;;;;;5028577;28;20048;-69
2023/03/18 08:17:07;;;;;;;21.38;11.95;;;16.10;99.90;;;;;;5023313;28;20098;-69
2023/03/18 08:19:33;;;;;;;20.90;10.82;;;16.70;99.90;;;;;;5029702;28;20544;-71
2023/03/18 08:21:59;;;;;;;22.45;11.63;;;17.50;99.90;;;;;;5031461;28;20083;-70
2023/03/18 08:24:25;;;;;;;21.10;10.95;;;18.00;99.90;;;;;;5031206;28;20033;-70
2023/03/18 08:26:51;;;;;;;18.85;9.95;;;18.70;99.90;;;;;;5030943;28;20499;-70
2023/03/18 08:29:16;;;;;;;19.25;10.77;;;19.00;99.90;;;;;;5030567;28;20039;-67
2023/03/18 08:31:42;;;;;;;16.15;9.40;;;19.40;99.90;;;;;;5030058;28;20045;-68
2023/03/18 08:34:08;;;;;;;16.38;9.25;;;20.10;99.90;;;;;;5030735;28;20053;-67
2023/03/18 08:36:33;;;;;;;19.42;10.70;;;20.80;99.90;;;;;;5030942;28;20044;-69
2023/03/18 08:38:59;;;;;;;15.15;9.18;;;21.00;99.90;;;;;;5030997;28;20104;-70
2023/03/18 08:41:25;;;;;;;18.05;9.50;;;21.30;99.90;;;;;;5030474;28;20041;-69
2023/03/18 08:43:52;;;;;;;17.48;9.75;;;21.30;99.90;;;;;;5019861;28;20026;-68
2023/03/18 08:46:17;;;;;;;17.33;10.27;;;20.90;99.90;;;;;;5029454;28;20037;-68
2023/03/18 08:48:43;;;;;;;17.50;10.05;;;20.60;99.90;;;;;;5028863;28;20390;-69
2023/03/18 08:51:12;;;;;;;18.02;9.50;;;20.20;99.90;;;;;;5029900;28;20037;-67
2023/03/18 08:53:37;;;;;;;19.25;10.65;;;20.40;99.90;;;;;;5026696;28;20036;-69
2023/03/18 08:56:06;;;;;;;19.92;11.00;;;20.40;99.90;;;;;;5030417;28;20410;-68
2023/03/18 08:58:33;;;;;;;19.65;11.95;;;20.70;99.90;;;;;;5028699;28;20113;-68
2023/03/18 09:01:02;;;;;;;17.98;10.13;;;21.40;99.90;;;;;;5031076;28;20048;-68
2023/03/18 09:03:27;;;;;;;18.35;9.85;;;21.80;99.90;;;;;;5030573;28;20033;-69
2023/03/18 09:05:54;;;;;;;16.08;8.98;;;21.50;99.90;;;;;;5031760;28;20033;-68
2023/03/18 09:08:22;;;;;;;17.63;8.77;;;21.50;99.90;;;;;;5027769;28;20033;-69
2023/03/18 09:10:52;;;;;;;16.13;9.15;;;21.90;99.90;;;;;;5032314;28;20465;-67
2023/03/18 09:13:19;;;;;;;14.32;8.05;;;21.90;99.90;;;;;;5035336;28;20038;-68
2023/03/18 09:15:44;;;;;;;19.70;11.88;;;22.30;99.70;;;;;;5034955;28;20017;-69
2023/03/18 09:18:12;;;;;;;14.43;8.18;;;22.70;99.30;;;;;;5035342;28;20028;-69
2023/03/18 09:20:41;;;;;;;16.45;8.60;;;23.50;98.70;;;;;;5035102;28;20049;-68
2023/03/18 09:23:08;;;;;;;17.10;9.30;;;23.90;97.60;;;;;;5034764;28;20532;-68
2023/03/18 09:25:34;;;;;;;16.30;8.85;;;24.30;97.10;;;;;;5035119;28;20022;-68
2023/03/18 09:28:00;;;;;;;13.30;8.05;;;24.60;96.70;;;;;;5016885;28;20020;-68
2023/03/18 09:30:26;;;;;;;12.73;7.20;;;25.00;95.90;;;;;;5017276;28;20758;-68
2023/03/18 09:32:52;;;;;;;13.93;8.20;;;25.00;95.40;;;;;;5032659;28;20373;-68
2023/03/18 09:35:18;;;;;;;16.63;9.23;;;24.70;95.70;;;;;;5033938;28;20030;-68
2023/03/18 09:37:44;;;;;;;16.08;10.25;;;23.90;96.40;;;;;;5035109;28;20044;-69
2023/03/18 09:40:20;;;;;;;16.75;9.55;;;23.60;96.90;;;;;;5035088;28;20147;-69
2023/03/18 09:42:55;;;;;;;21.35;12.13;;;23.30;97.00;;;;;;5035023;28;20038;-69
2023/03/18 09:45:29;;;;;;;17.92;11.23;;;23.40;97.50;;;;;;5035052;28;20424;-69
2023/03/18 09:48:28;;;;;;;14.00;7.93;;;24.20;96.90;;;;;;5033677;28;20125;-69
2023/03/18 09:51:18;;;;;;;16.70;10.38;;;24.50;95.50;;;;;;5031051;28;20033;-69
2023/03/18 09:54:00;;;;;;;23.10;12.95;;;24.50;95.90;;;;;;5033226;28;20030;-68
2023/03/18 09:56:29;;;;;;;14.18;9.63;;;25.00;95.30;;;;;;5034029;28;20049;-68
2023/03/18 09:59:02;;;;;;;20.67;14.23;;;25.20;94.80;;;;;;5027574;28;20112;-67
2023/03/18 10:01:30;;;;;;;19.42;11.38;;;24.60;95.00;;;;;;5025661;28;20069;-67
2023/03/18 10:04:03;;;;;;;16.70;10.57;;;23.50;96.10;;;;;;5034560;28;20025;-69
2023/03/18 10:06:29;;;;;;;15.82;8.85;;;22.60;97.40;;;;;;5033766;28;20030;-67
2023/03/18 10:09:24;;;;;;;19.23;10.45;;;22.50;97.80;;;;;;5029047;28;20076;-70
2023/03/18 10:11:52;;;;;;;18.40;12.10;;;22.20;97.60;;;;;;5025244;28;20650;-69
2023/03/18 10:14:46;;;;;;;19.52;10.57;;;21.80;98.40;;;;;;5018612;28;20347;-66
2023/03/18 10:17:22;;;;;;;18.45;11.55;;;21.70;98.00;;;;;;5027347;28;20075;-69
2023/03/18 10:19:53;;;;;;;16.92;10.05;;;21.40;98.90;;;;;;5034307;28;20045;-67
2023/03/18 10:22:44;;;;;;;16.43;8.40;;;21.70;98.30;;;;;;5032581;28;20079;-68
2023/03/18 10:25:21;;;;;;;17.03;10.03;;;22.20;97.20;;;;;;5033730;28;20041;-68
2023/03/18 10:28:06;;;;;;;16.88;9.18;;;22.60;97.40;;;;;;5031195;28;20037;-69
2023/03/18 10:30:56;;;;;;;19.27;10.95;;;23.00;96.50;;;;;;5028909;28;20043;-69
2023/03/18 10:34:00;;;;;;;17.67;10.65;;;23.00;96.70;;;;;;5032039;28;20470;-68
2023/03/18 10:36:46;;;;;;;15.15;8.75;;;22.90;96.50;;;;;;5029845;28;20126;-68
2023/03/18 10:39:18;;;;;;;15.90;9.25;;;22.60;96.80;;;;;;5033740;28;20112;-69
2023/03/18 10:41:48;;;;;;;16.13;9.50;;;22.50;96.80;;;;;;5028828;28;20041;-68
2023/03/18 10:44:23;;;;;;;17.02;9.40;;;22.40;97.30;;;;;;5019880;28;20025;-68
2023/03/18 10:46:58;;;;;;;17.50;9.18;;;22.40;96.90;;;;;;5033701;28;20072;-67
2023/03/18 10:49:29;;;;;;;13.20;7.70;;;22.30;97.20;;;;;;5032867;28;20758;-68
2023/03/18 10:52:04;;;;;;;14.00;7.18;;;21.80;97.20;;;;;;5031189;28;20038;-69
2023/03/18 10:54:51;;;;;;;15.80;9.75;;;21.30;98.00;;;;;;5028616;28;20039;-67
2023/03/18 10:57:19;;;;;;;16.77;10.55;;;21.00;99.00;;;;;;5033393;28;20025;-68
2023/03/18 10:59:46;;;;;;;18.40;9.65;;;20.90;98.70;;;;;;5032898;28;20041;-68
2023/03/18 11:02:31;;;;;;;20.33;11.50;;;20.70;98.80;;;;;;5019783;28;20061;-68
2023/03/18 11:05:25;;;;;;;17.55;10.15;;;20.60;99.50;;;;;;5032956;28;20044;-68
2023/03/18 11:08:04;;;;;;;16.08;9.55;;;20.70;99.60;;;;;;5020406;28;20037;-70
2023/03/18 11:10:35;;;;;;;14.82;8.30;;;20.70;99.50;;;;;;5032937;28;20033;-68
2023/03/18 11:13:02;;;;;;;;;;;20.50;99.50;;;;;;5033374;28;20036;-68
2023/03/18 11:15:38;;;;;;;19.10;10.65;;;20.20;99.90;;;;;;5030903;28;19917;-69
2023/03/18 11:18:04;;;;;;;16.65;9.82;;;20.00;99.90;;;;;;5032909;28;20025;-68
2023/03/18 11:20:43;;;;;;;17.52;10.02;;;20.10;99.90;;;;;;5032488;28;20034;-68
2023/03/18 11:23:18;;;;;;;19.38;10.75;;;20.10;99.90;;;;;;5033170;28;20140;-70
2023/03/18 11:25:47;;;;;;;17.90;10.40;;;20.70;99.90;;;;;;5031894;28;20132;-69
2023/03/18 11:28:22;;;;;;;18.85;10.73;;;21.10;99.10;;;;;;5030363;28;20060;-69
2023/03/18 11:30:51;;;;;;;17.48;9.82;;;21.50;99.00;;;;;;5031514;28;20053;-68
2023/03/18 11:33:18;;;;;;;18.42;10.43;;;21.60;98.60;;;;;;5026362;28;20484;-71
2023/03/18 11:36:03;;;;;;;16.50;9.63;;;21.40;99.10;;;;;;5032304;28;20041;-67
2023/03/18 11:38:44;;;;;;;19.45;11.45;;;21.00;99.20;;;;;;5028578;28;20083;-69
2023/03/18 11:41:22;;;;;;;14.43;7.32;;;20.60;99.80;;;;;;5029840;28;20095;-68
2023/03/18 11:43:58;;;;;;;19.35;10.25;;;20.30;99.80;;;;;;5032702;28;20111;-68
2023/03/18 11:46:45;;;;;;;18.02;9.48;;;20.00;99.90;;;;;;5032153;28;20033;-67
2023/03/18 11:49:18;;;;;;;16.23;8.27;;;19.80;99.90;;;;;;5032005;28;20060;-68
2023/03/18 11:52:18;;;;;;;17.85;7.85;;;19.40;99.90;;;;;;5032185;28;20060;-68
2023/03/18 11:54:44;;;;;;;19.30;10.90;;;19.10;99.90;;;;;;5032544;28;20079;-68
2023/03/18 11:57:22;;;;;;;20.63;11.35;;;18.90;99.90;;;;;;5032337;28;20037;-69
2023/03/18 12:00:06;;;;;;;20.23;11.45;;;18.70;99.90;;;;;;5031387;28;20033;-68
2023/03/18 12:02:41;;;;;;;17.80;9.38;;;18.60;99.90;;;;;;5029802;28;20133;-68
2023/03/18 12:05:34;;;;;;;18.77;8.75;;;18.60;99.90;;;;;;5030935;28;20026;-68
2023/03/18 12:08:30;;;;;;;15.13;7.53;;;18.60;99.90;;;;;;5023455;28;20496;-67
2023/03/18 12:11:20;;;;;;;18.90;10.05;;;18.60;99.90;;;;;;5024464;28;20438;-68
2023/03/18 12:13:59;;;;;;;21.10;9.98;;;18.40;99.90;;;;;;5026596;28;20045;-68
2023/03/18 12:16:27;;;;;;;19.65;10.25;;;18.40;99.90;;;;;;5028190;28;20425;-68
2023/03/18 12:19:03;;;;;;;18.58;10.23;;;18.30;99.90;;;;;;5010933;28;20461;-69
2023/03/18 12:21:54;;;;;;;16.77;9.90;;;18.10;99.90;;;;;;5027933;28;20799;-68
2023/03/18 12:24:41;;;;;;;20.70;10.75;;;17.80;99.90;;;;;;5031457;28;20434;-68
2023/03/18 12:27:37;;;;;;;19.30;10.32;;;17.40;99.90;;;;;;5022993;28;20029;-68
2023/03/18 12:30:25;;;;;;;22.83;10.30;;;17.30;99.90;;;;;;5027976;28;20053;-67
2023/03/18 12:33:00;;;;;;;17.92;9.50;;;17.10;99.90;;;;;;5031716;28;20469;-68
2023/03/18 12:35:39;;;;;;;18.50;9.60;;;17.00;99.90;;;;;;5031459;28;20040;-69
2023/03/18 12:38:30;;;;;;;20.00;9.52;;;16.90;99.90;;;;;;5028476;28;20022;-69
2023/03/18 12:41:16;;;;;;;15.65;8.13;;;17.10;99.90;;;;;;5030987;28;20045;-68
2023/03/18 12:44:01;;;;;;;17.48;8.05;;;17.10;99.90;;;;;;5030546;28;20079;-68